createdAt,value
2018-09-28T00:00:55.354Z,17.51
2018-09-28T00:01:58.795Z,17.52
2018-09-28T00:03:02.181Z,17.52
2018-09-28T00:04:05.641Z,17.51
2018-09-28T00:05:09.182Z,17.52
2018-09-28T00:06:12.617Z,17.52
2018-09-28T00:07:16.063Z,17.50
2018-09-28T00:08:19.508Z,17.51
2018-09-28T00:09:22.941Z,17.51
2018-09-28T00:10:26.369Z,17.51
2018-09-28T00:11:29.825Z,17.51
2018-09-28T00:12:33.387Z,17.51
2018-09-28T00:13:36.801Z,17.51
2018-09-28T00:14:40.224Z,17.51
2018-09-28T00:15:43.635Z,17.51
2018-09-28T00:16:47.021Z,17.50
2018-09-28T00:17:50.435Z,17.51
2018-09-28T00:18:53.838Z,17.51
2018-09-28T00:19:57.249Z,17.50
2018-09-28T00:21:00.735Z,17.50
2018-09-28T00:22:04.135Z,17.51
2018-09-28T00:23:07.565Z,17.50
2018-09-28T00:24:11.006Z,17.50
2018-09-28T00:25:14.962Z,17.51
2018-09-28T00:26:18.408Z,17.50
2018-09-28T00:27:21.804Z,17.51
2018-09-28T00:28:25.241Z,17.51
2018-09-28T00:29:28.684Z,17.51
2018-09-28T00:30:32.162Z,17.50
2018-09-28T00:31:35.619Z,17.51
2018-09-28T00:32:39.030Z,17.50
2018-09-28T00:33:42.567Z,17.50
2018-09-28T00:34:45.981Z,17.50
2018-09-28T00:35:49.440Z,17.51
2018-09-28T00:36:52.923Z,17.50
2018-09-28T00:37:56.322Z,17.50
2018-09-28T00:38:59.746Z,17.50
2018-09-28T00:40:03.177Z,17.50
2018-09-28T00:41:06.798Z,17.50
2018-09-28T00:42:10.256Z,17.50
2018-09-28T00:43:13.689Z,17.49
2018-09-28T00:44:17.092Z,17.50
2018-09-28T00:45:20.574Z,17.50
2018-09-28T00:46:24.036Z,17.50
2018-09-28T00:47:27.536Z,17.50
2018-09-28T00:48:31.076Z,17.49
2018-09-28T00:49:34.490Z,17.50
2018-09-28T00:50:37.965Z,17.49
2018-09-28T00:51:41.469Z,17.48
2018-09-28T00:52:44.933Z,17.48
2018-09-28T00:53:48.357Z,17.48
2018-09-28T00:54:51.798Z,17.48
2018-09-28T00:55:55.219Z,17.48
2018-09-28T00:56:58.734Z,17.47
2018-09-28T00:58:02.304Z,17.47
2018-09-28T00:59:05.752Z,17.48
2018-09-28T01:00:09.168Z,17.48
2018-09-28T01:01:12.602Z,17.47
2018-09-28T01:02:16.011Z,17.48
2018-09-28T01:03:19.731Z,17.48
2018-09-28T01:04:23.151Z,17.47
2018-09-28T01:05:26.539Z,17.47
2018-09-28T01:06:29.948Z,17.48
2018-09-28T01:07:33.334Z,17.46
2018-09-28T01:08:36.781Z,17.47
2018-09-28T01:09:40.225Z,17.47
2018-09-28T01:10:43.650Z,17.47
2018-09-28T01:11:47.095Z,17.47
2018-09-28T01:12:50.491Z,17.47
2018-09-28T01:13:53.967Z,17.46
2018-09-28T01:14:57.395Z,17.47
2018-09-28T01:16:00.797Z,17.47
2018-09-28T01:17:04.236Z,17.47
2018-09-28T01:18:07.661Z,17.46
2018-09-28T01:19:11.111Z,17.47
2018-09-28T01:20:14.540Z,17.47
2018-09-28T01:21:17.986Z,17.45
2018-09-28T01:22:21.453Z,17.46
2018-09-28T01:23:24.885Z,17.46
2018-09-28T01:24:28.325Z,17.46
2018-09-28T01:25:31.920Z,17.46
2018-09-28T01:26:35.322Z,17.46
2018-09-28T01:27:38.733Z,17.46
2018-09-28T01:28:42.172Z,17.47
2018-09-28T01:29:45.579Z,17.46
2018-09-28T01:30:49.028Z,17.46
2018-09-28T01:31:52.471Z,17.46
2018-09-28T01:34:07.506Z,17.46
2018-09-28T01:35:10.957Z,17.45
2018-09-28T01:36:14.350Z,17.46
2018-09-28T01:37:17.774Z,17.46
2018-09-28T01:38:21.189Z,17.46
2018-09-28T01:39:24.585Z,17.46
2018-09-28T01:40:28.049Z,17.46
2018-09-28T01:41:31.498Z,17.46
2018-09-28T01:42:34.882Z,17.45
2018-09-28T01:43:38.305Z,17.46
2018-09-28T01:44:41.762Z,17.46
2018-09-28T01:45:45.248Z,17.45
2018-09-28T01:46:49.129Z,17.46
2018-09-28T01:47:52.577Z,17.46
2018-09-28T01:48:56.232Z,17.45
2018-09-28T01:49:59.642Z,17.45
2018-09-28T01:51:03.945Z,17.46
2018-09-28T01:52:07.405Z,17.45
2018-09-28T01:53:10.834Z,17.45
2018-09-28T01:54:14.282Z,17.45
2018-09-28T01:55:17.739Z,17.45
2018-09-28T01:56:21.200Z,17.45
2018-09-28T01:57:24.674Z,17.45
2018-09-28T01:58:28.223Z,17.45
2018-09-28T01:59:31.635Z,17.45
2018-09-28T02:00:35.088Z,17.44
2018-09-28T02:01:38.600Z,17.45
2018-09-28T02:02:42.157Z,17.45
2018-09-28T02:03:45.738Z,17.45
2018-09-28T02:04:49.150Z,17.46
2018-09-28T02:05:52.585Z,17.44
2018-09-28T02:06:56.137Z,17.44
2018-09-28T02:07:59.585Z,17.44
2018-09-28T02:09:03.105Z,17.44
2018-09-28T02:10:06.603Z,17.44
2018-09-28T02:11:10.032Z,17.44
2018-09-28T02:12:13.463Z,17.44
2018-09-28T02:13:17.049Z,17.44
2018-09-28T02:14:20.500Z,17.44
2018-09-28T02:15:23.937Z,17.44
2018-09-28T02:16:27.467Z,17.44
2018-09-28T02:17:30.923Z,17.44
2018-09-28T02:18:34.368Z,17.44
2018-09-28T02:19:37.923Z,17.45
2018-09-28T02:20:41.333Z,17.45
2018-09-28T02:21:44.747Z,17.45
2018-09-28T02:22:48.169Z,17.44
2018-09-28T02:23:51.654Z,17.44
2018-09-28T02:24:55.132Z,17.44
2018-09-28T02:25:58.545Z,17.43
2018-09-28T02:27:01.986Z,17.43
2018-09-28T02:28:05.439Z,17.44
2018-09-28T02:29:09.074Z,17.43
2018-09-28T02:30:12.613Z,17.43
2018-09-28T02:31:16.015Z,17.43
2018-09-28T02:32:19.485Z,17.43
2018-09-28T02:33:22.980Z,17.44
2018-09-28T02:34:26.585Z,17.43
2018-09-28T02:35:29.999Z,17.44
2018-09-28T02:36:33.554Z,17.44
2018-09-28T02:37:36.979Z,17.42
2018-09-28T02:38:40.406Z,17.44
2018-09-28T02:39:43.854Z,17.43
2018-09-28T02:40:47.231Z,17.43
2018-09-28T02:41:50.612Z,17.43
2018-09-28T02:42:54.056Z,17.42
2018-09-28T02:43:57.519Z,17.43
2018-09-28T02:45:00.934Z,17.43
2018-09-28T02:46:04.621Z,17.44
2018-09-28T02:47:08.094Z,17.43
2018-09-28T02:48:11.513Z,17.43
2018-09-28T02:49:15.798Z,17.43
2018-09-28T02:50:19.251Z,17.43
2018-09-28T02:51:22.658Z,17.42
2018-09-28T02:52:26.108Z,17.43
2018-09-28T02:53:29.616Z,17.43
2018-09-28T02:54:33.046Z,17.43
2018-09-28T02:55:36.463Z,17.43
2018-09-28T02:56:39.929Z,17.43
2018-09-28T02:57:43.441Z,17.43
2018-09-28T02:58:46.899Z,17.43
2018-09-28T02:59:50.363Z,17.43
2018-09-28T03:00:53.790Z,17.43
2018-09-28T03:01:57.221Z,17.43
2018-09-28T03:03:00.693Z,17.44
2018-09-28T03:04:04.217Z,17.43
2018-09-28T03:05:07.758Z,17.43
2018-09-28T03:06:11.269Z,17.42
2018-09-28T03:07:15.014Z,17.42
2018-09-28T03:08:18.665Z,17.43
2018-09-28T03:09:22.114Z,17.43
2018-09-28T03:10:25.579Z,17.42
2018-09-28T03:11:29.056Z,17.42
2018-09-28T03:12:32.503Z,17.42
2018-09-28T03:13:35.976Z,17.42
2018-09-28T03:14:39.423Z,17.41
2018-09-28T03:15:42.890Z,17.41
2018-09-28T03:16:46.580Z,17.41
2018-09-28T03:17:49.994Z,17.42
2018-09-28T03:18:53.438Z,17.41
2018-09-28T03:19:56.877Z,17.42
2018-09-28T03:21:00.319Z,17.42
2018-09-28T03:22:03.778Z,17.42
2018-09-28T03:23:07.251Z,17.41
2018-09-28T03:24:10.713Z,17.41
2018-09-28T03:25:14.168Z,17.40
2018-09-28T03:26:17.680Z,17.40
2018-09-28T03:27:21.140Z,17.41
2018-09-28T03:28:24.620Z,17.41
2018-09-28T03:29:28.095Z,17.42
2018-09-28T03:30:31.580Z,17.42
2018-09-28T03:31:35.105Z,17.41
2018-09-28T03:32:38.622Z,17.40
2018-09-28T03:33:42.057Z,17.41
2018-09-28T03:34:45.581Z,17.41
2018-09-28T03:35:49.031Z,17.41
2018-09-28T03:36:52.479Z,17.41
2018-09-28T03:37:55.923Z,17.42
2018-09-28T03:38:59.405Z,17.42
2018-09-28T03:40:02.952Z,17.42
2018-09-28T03:41:06.573Z,17.40
2018-09-28T03:42:10.147Z,17.40
2018-09-28T03:43:13.552Z,17.40
2018-09-28T03:44:16.939Z,17.40
2018-09-28T03:45:20.456Z,17.41
2018-09-28T03:46:24.109Z,17.40
2018-09-28T03:47:27.651Z,17.40
2018-09-28T03:48:31.117Z,17.39
2018-09-28T03:49:34.689Z,17.40
2018-09-28T03:50:38.187Z,17.40
2018-09-28T03:51:41.687Z,17.40
2018-09-28T03:52:45.280Z,17.40
2018-09-28T03:53:48.690Z,17.39
2018-09-28T03:54:52.111Z,17.39
2018-09-28T03:55:55.525Z,17.39
2018-09-28T03:56:58.959Z,17.40
2018-09-28T03:58:02.371Z,17.39
2018-09-28T03:59:06.109Z,17.39
2018-09-28T04:00:10.527Z,17.39
2018-09-28T04:01:14.032Z,17.40
2018-09-28T04:02:17.679Z,17.39
2018-09-28T04:03:21.087Z,17.38
2018-09-28T04:04:24.604Z,17.39
2018-09-28T04:05:28.092Z,17.39
2018-09-28T04:06:31.542Z,17.39
2018-09-28T04:07:35.341Z,17.39
2018-09-28T04:08:38.780Z,17.39
2018-09-28T04:09:42.201Z,17.39
2018-09-28T04:10:45.749Z,17.38
2018-09-28T04:11:49.197Z,17.38
2018-09-28T04:12:52.641Z,17.39
2018-09-28T04:13:56.089Z,17.37
2018-09-28T04:14:59.593Z,17.37
2018-09-28T04:16:03.075Z,17.37
2018-09-28T04:17:06.525Z,17.38
2018-09-28T04:18:10.020Z,17.37
2018-09-28T04:19:13.456Z,17.37
2018-09-28T04:20:17.004Z,17.38
2018-09-28T04:21:20.400Z,17.37
2018-09-28T04:22:23.866Z,17.37
2018-09-28T04:23:27.299Z,17.37
2018-09-28T04:24:31.849Z,17.38
2018-09-28T04:25:35.342Z,17.37
2018-09-28T04:26:38.755Z,17.38
2018-09-28T04:27:42.220Z,17.36
2018-09-28T04:28:45.695Z,17.37
2018-09-28T04:29:49.137Z,17.37
2018-09-28T04:30:52.573Z,17.37
2018-09-28T04:31:56.020Z,17.37
2018-09-28T04:32:59.415Z,17.36
2018-09-28T04:34:02.882Z,17.36
2018-09-28T04:35:06.419Z,17.37
2018-09-28T04:36:10.630Z,17.36
2018-09-28T04:37:14.478Z,17.37
2018-09-28T04:38:19.695Z,17.37
2018-09-28T04:39:23.596Z,17.37
2018-09-28T04:40:27.083Z,17.36
2018-09-28T04:41:30.528Z,17.36
2018-09-28T04:42:34.118Z,17.37
2018-09-28T04:43:37.638Z,17.36
2018-09-28T04:44:41.796Z,17.36
2018-09-28T04:45:46.446Z,17.37
2018-09-28T04:46:49.906Z,17.36
2018-09-28T04:47:53.372Z,17.36
2018-09-28T04:48:56.802Z,17.35
2018-09-28T04:50:00.293Z,17.35
2018-09-28T04:51:03.818Z,17.36
2018-09-28T04:52:07.252Z,17.35
2018-09-28T04:53:10.679Z,17.36
2018-09-28T04:54:15.041Z,17.35
2018-09-28T04:55:18.754Z,17.34
2018-09-28T04:56:22.219Z,17.35
2018-09-28T04:57:25.666Z,17.35
2018-09-28T04:58:29.054Z,17.35
2018-09-28T04:59:32.532Z,17.35
2018-09-28T05:00:35.963Z,17.34
2018-09-28T05:01:39.394Z,17.35
2018-09-28T05:02:42.875Z,17.35
2018-09-28T05:03:46.289Z,17.35
2018-09-28T05:04:49.866Z,17.34
2018-09-28T05:05:53.295Z,17.34
2018-09-28T05:06:57.008Z,17.34
2018-09-28T05:08:00.473Z,17.34
2018-09-28T05:09:05.306Z,17.35
2018-09-28T05:10:08.729Z,17.35
2018-09-28T05:11:12.174Z,17.33
2018-09-28T05:12:15.726Z,17.34
2018-09-28T05:13:19.158Z,17.33
2018-09-28T05:14:22.607Z,17.34
2018-09-28T05:15:26.256Z,17.33
2018-09-28T05:16:29.799Z,17.33
2018-09-28T05:17:33.268Z,17.33
2018-09-28T05:18:36.733Z,17.33
2018-09-28T05:19:40.167Z,17.33
2018-09-28T05:20:43.590Z,17.32
2018-09-28T05:21:47.270Z,17.32
2018-09-28T05:22:51.062Z,17.32
2018-09-28T05:23:54.542Z,17.33
2018-09-28T05:24:57.972Z,17.33
2018-09-28T05:26:01.386Z,17.32
2018-09-28T05:27:04.906Z,17.33
2018-09-28T05:28:08.493Z,17.32
2018-09-28T05:29:11.915Z,17.32
2018-09-28T05:30:15.373Z,17.32
2018-09-28T05:31:18.871Z,17.32
2018-09-28T05:32:22.438Z,17.32
2018-09-28T05:33:25.764Z,17.31
2018-09-28T05:34:29.214Z,17.31
2018-09-28T05:35:32.632Z,17.31
2018-09-28T05:36:36.708Z,17.30
2018-09-28T05:37:40.457Z,17.31
2018-09-28T05:38:43.909Z,17.32
2018-09-28T05:39:47.411Z,17.31
2018-09-28T05:40:50.957Z,17.31
2018-09-28T05:41:54.412Z,17.31
2018-09-28T05:42:57.908Z,17.29
2018-09-28T05:44:01.400Z,17.29
2018-09-28T05:45:04.876Z,17.31
2018-09-28T05:46:08.663Z,17.29
2018-09-28T05:47:12.067Z,17.29
2018-09-28T05:48:15.733Z,17.29
2018-09-28T05:49:19.166Z,17.28
2018-09-28T05:50:22.627Z,17.28
2018-09-28T05:51:26.235Z,17.28
2018-09-28T05:52:29.700Z,17.29
2018-09-28T05:53:33.229Z,17.28
2018-09-28T05:54:36.705Z,17.29
2018-09-28T05:55:40.446Z,17.28
2018-09-28T05:56:43.962Z,17.28
2018-09-28T05:57:47.443Z,17.29
2018-09-28T05:58:56.194Z,17.29
2018-09-28T06:00:04.900Z,17.28
2018-09-28T06:01:13.794Z,17.29
2018-09-28T06:02:22.441Z,17.28
2018-09-28T06:03:25.976Z,17.28
2018-09-28T06:04:34.686Z,17.28
2018-09-28T06:06:08.959Z,17.28
2018-09-28T06:07:12.425Z,17.27
2018-09-28T06:08:16.091Z,17.28
2018-09-28T06:09:19.708Z,17.28
2018-09-28T06:10:23.119Z,17.27
2018-09-28T06:11:26.755Z,17.28
2018-09-28T06:12:30.300Z,17.27
2018-09-28T06:13:33.783Z,17.25
2018-09-28T06:14:37.191Z,17.27
2018-09-28T06:15:40.649Z,17.27
2018-09-28T06:16:44.076Z,17.27
2018-09-28T06:17:47.733Z,17.26
2018-09-28T06:18:51.141Z,17.27
2018-09-28T06:19:54.734Z,17.26
2018-09-28T06:20:58.381Z,17.26
2018-09-28T06:22:01.853Z,17.26
2018-09-28T06:23:05.563Z,17.26
2018-09-28T06:24:09.042Z,17.26
2018-09-28T06:25:12.504Z,17.26
2018-09-28T06:26:15.912Z,17.26
2018-09-28T06:27:19.341Z,17.26
2018-09-28T06:28:22.816Z,17.25
2018-09-28T06:29:26.670Z,17.25
2018-09-28T06:30:30.146Z,17.24
2018-09-28T06:31:33.579Z,17.25
2018-09-28T06:32:37.014Z,17.24
2018-09-28T06:33:40.461Z,17.25
2018-09-28T06:34:44.377Z,17.25
2018-09-28T06:35:48.471Z,17.25
2018-09-28T06:36:52.024Z,17.25
2018-09-28T06:37:55.742Z,17.25
2018-09-28T06:38:59.187Z,17.25
2018-09-28T06:40:02.634Z,17.24
2018-09-28T06:41:06.159Z,17.25
2018-09-28T06:42:09.668Z,17.24
2018-09-28T06:43:13.127Z,17.24
2018-09-28T06:44:16.574Z,17.24
2018-09-28T06:45:20.051Z,17.24
2018-09-28T06:46:23.507Z,17.25
2018-09-28T06:47:27.361Z,17.25
2018-09-28T06:48:30.799Z,17.24
2018-09-28T06:49:34.253Z,17.24
2018-09-28T06:50:38.090Z,17.24
2018-09-28T06:51:41.506Z,17.23
2018-09-28T06:52:45.095Z,17.24
2018-09-28T06:53:48.646Z,17.24
2018-09-28T06:54:52.028Z,17.23
2018-09-28T06:55:55.444Z,17.22
2018-09-28T06:56:58.902Z,17.24
2018-09-28T06:58:02.344Z,17.23
2018-09-28T06:59:05.762Z,17.23
2018-09-28T07:00:09.893Z,17.23
2018-09-28T07:01:13.356Z,17.22
2018-09-28T07:02:16.949Z,17.22
2018-09-28T07:03:20.385Z,17.22
2018-09-28T07:04:23.845Z,17.23
2018-09-28T07:05:27.256Z,17.23
2018-09-28T07:06:30.739Z,17.23
2018-09-28T07:07:34.220Z,17.22
2018-09-28T07:08:37.729Z,17.22
2018-09-28T07:09:41.135Z,17.22
2018-09-28T07:10:44.622Z,17.22
2018-09-28T07:11:48.112Z,17.22
2018-09-28T07:12:51.513Z,17.21
2018-09-28T07:13:54.946Z,17.22
2018-09-28T07:14:58.392Z,17.21
2018-09-28T07:16:01.866Z,17.21
2018-09-28T07:17:05.309Z,17.23
2018-09-28T07:18:08.763Z,17.21
2018-09-28T07:19:12.274Z,17.21
2018-09-28T07:20:15.678Z,17.21
2018-09-28T07:21:19.257Z,17.22
2018-09-28T07:22:22.657Z,17.21
2018-09-28T07:23:26.112Z,17.21
2018-09-28T07:24:29.565Z,17.21
2018-09-28T07:25:32.997Z,17.21
2018-09-28T07:26:36.465Z,17.20
2018-09-28T07:27:39.881Z,17.21
2018-09-28T07:28:43.354Z,17.21
2018-09-28T07:29:46.837Z,17.22
2018-09-28T07:30:50.293Z,17.21
2018-09-28T07:31:54.104Z,17.20
2018-09-28T07:32:57.537Z,17.20
2018-09-28T07:34:01.003Z,17.20
2018-09-28T07:35:04.575Z,17.20
2018-09-28T07:36:08.244Z,17.20
2018-09-28T07:37:11.737Z,17.21
2018-09-28T07:38:15.051Z,17.21
2018-09-28T07:39:18.485Z,17.19
2018-09-28T07:40:21.928Z,17.20
2018-09-28T07:41:25.352Z,17.20
2018-09-28T07:42:28.813Z,17.20
2018-09-28T07:43:32.281Z,17.20
2018-09-28T07:44:35.726Z,17.21
2018-09-28T07:45:39.131Z,17.20
2018-09-28T07:46:42.559Z,17.20
2018-09-28T07:47:46.107Z,17.20
2018-09-28T07:48:49.684Z,17.20
2018-09-28T07:49:53.108Z,17.20
2018-09-28T07:50:56.604Z,17.20
2018-09-28T07:52:00.076Z,17.20
2018-09-28T07:53:03.536Z,17.21
2018-09-28T07:54:07.353Z,17.20
2018-09-28T07:55:11.449Z,17.20
2018-09-28T07:56:14.982Z,17.20
2018-09-28T07:57:18.407Z,17.19
2018-09-28T07:58:21.919Z,17.20
2018-09-28T07:59:25.369Z,17.19
2018-09-28T08:00:28.813Z,17.21
2018-09-28T08:01:32.243Z,17.20
2018-09-28T08:02:35.724Z,17.20
2018-09-28T08:03:39.183Z,17.19
2018-09-28T08:04:42.661Z,17.20
2018-09-28T08:05:46.094Z,17.19
2018-09-28T08:06:49.492Z,17.19
2018-09-28T08:07:52.973Z,17.20
2018-09-28T08:08:56.453Z,17.19
2018-09-28T08:09:59.892Z,17.19
2018-09-28T08:11:03.354Z,17.18
2018-09-28T08:12:06.818Z,17.19
2018-09-28T08:13:10.234Z,17.19
2018-09-28T08:14:13.669Z,17.19
2018-09-28T08:15:17.060Z,17.18
2018-09-28T08:16:20.585Z,17.19
2018-09-28T08:17:24.175Z,17.18
2018-09-28T08:18:27.563Z,17.18
2018-09-28T08:19:31.037Z,17.18
2018-09-28T08:20:34.478Z,17.18
2018-09-28T08:21:37.984Z,17.18
2018-09-28T08:22:41.409Z,17.18
2018-09-28T08:23:44.877Z,17.19
2018-09-28T08:24:48.381Z,17.17
2018-09-28T08:25:51.829Z,17.17
2018-09-28T08:26:55.234Z,17.17
2018-09-28T08:27:58.650Z,17.17
2018-09-28T08:29:02.066Z,17.17
2018-09-28T08:30:05.566Z,17.17
2018-09-28T08:31:09.012Z,17.17
2018-09-28T08:32:12.462Z,17.17
2018-09-28T08:33:15.857Z,17.16
2018-09-28T08:34:19.301Z,17.16
2018-09-28T08:35:22.752Z,17.16
2018-09-28T08:36:26.281Z,17.16
2018-09-28T08:37:29.636Z,17.16
2018-09-28T08:38:33.156Z,17.16
2018-09-28T08:39:36.643Z,17.16
2018-09-28T08:40:40.112Z,17.16
2018-09-28T08:41:43.606Z,17.16
2018-09-28T08:42:47.042Z,17.16
2018-09-28T08:43:50.478Z,17.16
2018-09-28T08:44:53.895Z,17.15
2018-09-28T08:45:57.310Z,17.15
2018-09-28T08:47:00.774Z,17.16
2018-09-28T08:48:04.238Z,17.16
2018-09-28T08:49:07.656Z,17.16
2018-09-28T08:50:11.127Z,17.15
2018-09-28T08:51:14.581Z,17.14
2018-09-28T08:52:18.057Z,17.16
2018-09-28T08:53:21.584Z,17.16
2018-09-28T08:54:25.188Z,17.15
2018-09-28T08:55:28.640Z,17.14
2018-09-28T08:56:32.071Z,17.14
2018-09-28T08:57:35.517Z,17.14
2018-09-28T08:58:38.950Z,17.14
2018-09-28T08:59:42.468Z,17.13
2018-09-28T09:00:45.895Z,17.14
2018-09-28T09:01:49.358Z,17.14
2018-09-28T09:02:52.825Z,17.13
2018-09-28T09:03:56.350Z,17.13
2018-09-28T09:04:59.845Z,17.14
2018-09-28T09:06:03.376Z,17.13
2018-09-28T09:07:06.845Z,17.14
2018-09-28T09:08:10.280Z,17.14
2018-09-28T09:09:14.388Z,17.13
2018-09-28T09:10:17.788Z,17.13
2018-09-28T09:11:21.250Z,17.13
2018-09-28T09:12:24.685Z,17.13
2018-09-28T09:13:28.106Z,17.13
2018-09-28T09:14:31.504Z,17.12
2018-09-28T09:15:35.211Z,17.12
2018-09-28T09:16:38.631Z,17.13
2018-09-28T09:17:42.064Z,17.12
2018-09-28T09:18:45.513Z,17.14
2018-09-28T09:19:48.934Z,17.12
2018-09-28T09:20:52.381Z,17.13
2018-09-28T09:21:55.888Z,17.12
2018-09-28T09:22:59.304Z,17.12
2018-09-28T09:24:03.053Z,17.12
2018-09-28T09:25:06.783Z,17.12
2018-09-28T09:26:10.237Z,17.13
2018-09-28T09:27:13.782Z,17.12
2018-09-28T09:28:17.233Z,17.12
2018-09-28T09:29:20.656Z,17.12
2018-09-28T09:30:24.247Z,17.13
2018-09-28T09:31:27.653Z,17.13
2018-09-28T09:32:31.084Z,17.12
2018-09-28T09:33:34.501Z,17.12
2018-09-28T09:34:37.962Z,17.12
2018-09-28T09:35:41.382Z,17.12
2018-09-28T09:36:44.888Z,17.12
2018-09-28T09:37:48.420Z,17.11
2018-09-28T09:38:51.831Z,17.12
2018-09-28T09:39:55.246Z,17.11
2018-09-28T09:40:58.651Z,17.11
2018-09-28T09:42:02.070Z,17.11
2018-09-28T09:43:05.544Z,17.11
2018-09-28T09:44:09.060Z,17.11
2018-09-28T09:45:12.566Z,17.11
2018-09-28T09:46:16.169Z,17.11
2018-09-28T09:47:19.590Z,17.11
2018-09-28T09:48:23.062Z,17.10
2018-09-28T09:49:26.510Z,17.10
2018-09-28T09:50:29.962Z,17.10
2018-09-28T09:51:33.398Z,17.10
2018-09-28T09:52:36.836Z,17.09
2018-09-28T09:53:40.286Z,17.10
2018-09-28T09:54:43.706Z,17.09
2018-09-28T09:55:47.145Z,17.10
2018-09-28T09:56:50.559Z,17.09
2018-09-28T09:57:54.089Z,17.11
2018-09-28T09:58:57.438Z,17.09
2018-09-28T10:00:00.977Z,17.10
2018-09-28T10:01:06.467Z,17.09
2018-09-28T10:02:15.234Z,17.09
2018-09-28T10:03:23.929Z,17.09
2018-09-28T10:04:27.420Z,17.09
2018-09-28T10:05:31.462Z,17.09
2018-09-28T10:06:34.921Z,17.10
2018-09-28T10:07:38.357Z,17.08
2018-09-28T10:08:41.790Z,17.09
2018-09-28T10:09:45.369Z,17.10
2018-09-28T10:10:48.848Z,17.08
2018-09-28T10:11:52.336Z,17.09
2018-09-28T10:12:55.777Z,17.09
2018-09-28T10:13:59.254Z,17.09
2018-09-28T10:15:02.687Z,17.09
2018-09-28T10:16:06.153Z,17.09
2018-09-28T10:17:09.633Z,17.09
2018-09-28T10:18:13.163Z,17.08
2018-09-28T10:19:16.604Z,17.08
2018-09-28T10:20:20.114Z,17.08
2018-09-28T10:21:23.596Z,17.08
2018-09-28T10:22:27.230Z,17.08
2018-09-28T10:23:30.669Z,17.08
2018-09-28T10:24:34.439Z,17.08
2018-09-28T10:25:37.859Z,17.08
2018-09-28T10:26:41.263Z,17.09
2018-09-28T10:27:45.350Z,17.08
2018-09-28T10:28:49.045Z,17.08
2018-09-28T10:29:52.446Z,17.08
2018-09-28T10:30:55.925Z,17.08
2018-09-28T10:31:59.416Z,17.07
2018-09-28T10:33:03.110Z,17.07
2018-09-28T10:34:07.604Z,17.07
2018-09-28T10:35:11.101Z,17.07
2018-09-28T10:36:14.661Z,17.07
2018-09-28T10:37:18.268Z,17.07
2018-09-28T10:38:21.727Z,17.07
2018-09-28T10:39:25.240Z,17.08
2018-09-28T10:40:28.772Z,17.07
2018-09-28T10:41:32.193Z,17.07
2018-09-28T10:42:35.602Z,17.07
2018-09-28T10:43:39.049Z,17.07
2018-09-28T10:44:42.612Z,17.07
2018-09-28T10:45:46.077Z,17.07
2018-09-28T10:46:49.700Z,17.08
2018-09-28T10:47:53.103Z,17.07
2018-09-28T10:48:56.513Z,17.07
2018-09-28T10:49:59.965Z,17.06
2018-09-28T10:51:03.418Z,17.07
2018-09-28T10:52:08.033Z,17.07
2018-09-28T10:53:11.264Z,17.07
2018-09-28T10:54:14.696Z,17.06
2018-09-28T10:55:18.369Z,17.05
2018-09-28T10:56:21.874Z,17.06
2018-09-28T10:57:25.311Z,17.06
2018-09-28T10:58:28.844Z,17.05
2018-09-28T10:59:32.421Z,17.06
2018-09-28T11:00:35.837Z,17.06
2018-09-28T11:01:39.385Z,17.06
2018-09-28T11:02:43.032Z,17.05
2018-09-28T11:03:46.568Z,17.06
2018-09-28T11:04:50.133Z,17.06
2018-09-28T11:05:53.530Z,17.05
2018-09-28T11:06:56.978Z,17.05
2018-09-28T11:08:00.513Z,17.06
2018-09-28T11:09:05.509Z,17.06
2018-09-28T11:10:09.054Z,17.05
2018-09-28T11:11:12.580Z,17.06
2018-09-28T11:12:16.796Z,17.05
2018-09-28T11:13:20.244Z,17.05
2018-09-28T11:14:23.897Z,17.04
2018-09-28T11:15:27.461Z,17.05
2018-09-28T11:16:30.962Z,17.05
2018-09-28T11:17:34.651Z,17.05
2018-09-28T11:18:38.118Z,17.04
2018-09-28T11:19:41.538Z,17.04
2018-09-28T11:20:45.173Z,17.04
2018-09-28T11:21:48.847Z,17.04
2018-09-28T11:22:52.447Z,17.04
2018-09-28T11:23:55.916Z,17.04
2018-09-28T11:24:59.379Z,17.05
2018-09-28T11:26:02.826Z,17.04
2018-09-28T11:27:06.336Z,17.04
2018-09-28T11:28:09.916Z,17.04
2018-09-28T11:29:14.806Z,17.04
2018-09-28T11:30:23.509Z,17.04
2018-09-28T11:31:26.982Z,17.04
2018-09-28T11:32:30.510Z,17.03
2018-09-28T11:33:34.191Z,17.03
2018-09-28T11:34:37.631Z,17.04
2018-09-28T11:35:41.090Z,17.04
2018-09-28T11:36:44.505Z,17.04
2018-09-28T11:37:48.164Z,17.04
2018-09-28T11:38:56.286Z,17.04
2018-09-28T11:39:59.861Z,17.05
2018-09-28T11:41:03.324Z,17.03
2018-09-28T11:42:06.802Z,17.03
2018-09-28T11:43:10.273Z,17.03
2018-09-28T11:44:13.757Z,17.04
2018-09-28T11:45:21.666Z,17.03
2018-09-28T11:46:25.267Z,17.03
2018-09-28T11:47:28.760Z,17.03
2018-09-28T11:48:32.192Z,17.03
2018-09-28T11:49:35.655Z,17.03
2018-09-28T11:50:39.254Z,17.03
2018-09-28T11:51:42.824Z,17.02
2018-09-28T11:52:46.244Z,17.02
2018-09-28T11:53:49.669Z,17.03
2018-09-28T11:54:53.133Z,17.02
2018-09-28T11:55:56.954Z,17.02
2018-09-28T11:57:01.073Z,17.03
2018-09-28T11:58:04.558Z,17.02
2018-09-28T11:59:08.430Z,17.03
2018-09-28T12:00:11.917Z,17.03
2018-09-28T12:01:15.425Z,17.02
2018-09-28T12:02:18.826Z,17.02
2018-09-28T12:03:22.333Z,17.02
2018-09-28T12:04:25.784Z,17.02
2018-09-28T12:05:29.244Z,17.02
2018-09-28T12:06:32.750Z,17.01
2018-09-28T12:07:37.300Z,17.02
2018-09-28T12:08:40.761Z,17.02
2018-09-28T12:09:44.237Z,17.03
2018-09-28T12:10:47.783Z,17.01
2018-09-28T12:11:51.267Z,17.01
2018-09-28T12:12:54.711Z,17.02
2018-09-28T12:13:58.122Z,17.02
2018-09-28T12:15:01.627Z,17.00
2018-09-28T12:16:05.092Z,17.02
2018-09-28T12:17:08.495Z,17.02
2018-09-28T12:18:11.950Z,17.00
2018-09-28T12:19:15.428Z,17.00
2018-09-28T12:20:19.002Z,17.01
2018-09-28T12:21:22.495Z,17.02
2018-09-28T12:22:26.009Z,17.02
2018-09-28T12:23:29.557Z,17.01
2018-09-28T12:24:33.059Z,17.01
2018-09-28T12:25:36.513Z,17.01
2018-09-28T12:26:39.953Z,17.01
2018-09-28T12:27:43.519Z,17.01
2018-09-28T12:28:47.119Z,17.02
2018-09-28T12:29:50.649Z,17.01
2018-09-28T12:30:54.384Z,17.02
2018-09-28T12:31:57.869Z,17.00
2018-09-28T12:33:01.289Z,17.01
2018-09-28T12:34:05.233Z,17.01
2018-09-28T12:35:08.725Z,17.01
2018-09-28T12:36:12.333Z,17.00
2018-09-28T12:37:15.759Z,17.01
2018-09-28T12:38:19.210Z,17.02
2018-09-28T12:39:22.744Z,17.01
2018-09-28T12:40:26.125Z,17.01
2018-09-28T12:41:29.621Z,17.01
2018-09-28T12:42:33.293Z,17.01
2018-09-28T12:43:36.918Z,17.00
2018-09-28T12:44:40.692Z,17.00
2018-09-28T12:45:44.145Z,17.01
2018-09-28T12:46:47.543Z,17.00
2018-09-28T12:47:50.995Z,17.00
2018-09-28T12:48:54.553Z,17.00
2018-09-28T12:49:58.009Z,17.00
2018-09-28T12:51:01.645Z,17.00
2018-09-28T12:52:05.156Z,17.00
2018-09-28T12:53:08.629Z,17.00
2018-09-28T12:54:12.173Z,17.00
2018-09-28T12:55:15.627Z,16.99
2018-09-28T12:56:19.207Z,16.98
2018-09-28T12:57:22.666Z,16.99
2018-09-28T12:58:26.109Z,17.00
2018-09-28T12:59:29.531Z,16.99
2018-09-28T13:00:33.047Z,16.99
2018-09-28T13:01:36.492Z,16.99
2018-09-28T13:02:40.406Z,16.99
2018-09-28T13:03:43.856Z,17.00
2018-09-28T13:04:47.573Z,16.99
2018-09-28T13:05:51.023Z,16.99
2018-09-28T13:06:54.509Z,16.99
2018-09-28T13:07:57.933Z,16.99
2018-09-28T13:09:01.421Z,17.00
2018-09-28T13:10:05.154Z,17.00
2018-09-28T13:11:08.694Z,16.99
2018-09-28T13:12:12.358Z,16.99
2018-09-28T13:13:16.516Z,16.98
2018-09-28T13:14:19.976Z,16.99
2018-09-28T13:15:28.951Z,16.99
2018-09-28T13:16:33.075Z,16.98
2018-09-28T13:17:36.573Z,16.99
2018-09-28T13:18:40.639Z,16.99
2018-09-28T13:19:45.623Z,17.00
2018-09-28T13:20:53.807Z,16.99
2018-09-28T13:21:58.025Z,16.99
2018-09-28T13:23:05.973Z,16.98
2018-09-28T13:24:09.456Z,16.99
2018-09-28T13:25:12.890Z,16.98
2018-09-28T13:26:16.462Z,16.99
2018-09-28T13:27:19.886Z,16.98
2018-09-28T13:28:23.664Z,16.99
2018-09-28T13:29:27.099Z,16.98
2018-09-28T13:30:30.605Z,16.99
2018-09-28T13:31:34.315Z,16.99
2018-09-28T13:32:38.109Z,16.99
2018-09-28T13:33:41.549Z,16.97
2018-09-28T13:34:45.127Z,16.99
2018-09-28T13:35:48.588Z,16.98
2018-09-28T13:36:52.012Z,16.98
2018-09-28T13:37:55.447Z,16.98
2018-09-28T13:38:58.941Z,16.98
2018-09-28T13:40:02.356Z,16.98
2018-09-28T13:41:05.787Z,16.98